sensor_id;sensor_type;location;lat;lon;timestamp;P1;durP1;ratioP1;P2;durP2;ratioP2
59302;SDS011;45074;52.764;6.896;2023-12-07T00:02:17;17.83;;;10.32;;
59302;SDS011;45074;52.764;6.896;2023-12-07T00:04:43;16.52;;;9.93;;
59302;SDS011;45074;52.764;6.896;2023-12-07T00:07:09;16.02;;;9.70;;
59302;SDS011;45074;52.764;6.896;2023-12-07T00:09:35;17.17;;;10.23;;
59302;SDS011;45074;52.764;6.896;2023-12-07T00:12:01;18.27;;;9.82;;
59302;SDS011;45074;52.764;6.896;2023-12-07T00:14:27;17.27;;;10.50;;
59302;SDS011;45074;52.764;6.896;2023-12-07T00:16:53;16.88;;;9.95;;
59302;SDS011;45074;52.764;6.896;2023-12-07T00:19:19;14.95;;;9.20;;
59302;SDS011;45074;52.764;6.896;2023-12-07T00:21:45;14.27;;;9.07;;
59302;SDS011;45074;52.764;6.896;2023-12-07T00:24:11;18.33;;;10.05;;
59302;SDS011;45074;52.764;6.896;2023-12-07T00:26:37;19.50;;;9.52;;
59302;SDS011;45074;52.764;6.896;2023-12-07T00:29:03;16.98;;;9.00;;
59302;SDS011;45074;52.764;6.896;2023-12-07T00:31:29;16.30;;;8.98;;
59302;SDS011;45074;52.764;6.896;2023-12-07T00:33:55;15.70;;;9.10;;
59302;SDS011;45074;52.764;6.896;2023-12-07T00:36:21;15.63;;;9.32;;
59302;SDS011;45074;52.764;6.896;2023-12-07T00:38:47;15.20;;;8.88;;
59302;SDS011;45074;52.764;6.896;2023-12-07T00:41:12;14.20;;;8.35;;
59302;SDS011;45074;52.764;6.896;2023-12-07T00:43:38;14.60;;;8.45;;
59302;SDS011;45074;52.764;6.896;2023-12-07T00:46:06;14.63;;;8.55;;
59302;SDS011;45074;52.764;6.896;2023-12-07T00:48:32;14.48;;;8.77;;
59302;SDS011;45074;52.764;6.896;2023-12-07T00:50:58;14.82;;;8.95;;
59302;SDS011;45074;52.764;6.896;2023-12-07T00:53:24;14.20;;;8.45;;
59302;SDS011;45074;52.764;6.896;2023-12-07T00:55:50;13.88;;;8.70;;
59302;SDS011;45074;52.764;6.896;2023-12-07T00:58:16;15.20;;;9.07;;
59302;SDS011;45074;52.764;6.896;2023-12-07T01:00:42;15.73;;;8.65;;
59302;SDS011;45074;52.764;6.896;2023-12-07T01:03:09;15.15;;;9.15;;
59302;SDS011;45074;52.764;6.896;2023-12-07T01:05:35;15.80;;;9.05;;
59302;SDS011;45074;52.764;6.896;2023-12-07T01:08:01;15.20;;;8.30;;
59302;SDS011;45074;52.764;6.896;2023-12-07T01:10:28;16.10;;;8.73;;
59302;SDS011;45074;52.764;6.896;2023-12-07T01:12:57;15.25;;;8.32;;
59302;SDS011;45074;52.764;6.896;2023-12-07T01:15:22;15.18;;;8.90;;
59302;SDS011;45074;52.764;6.896;2023-12-07T01:17:48;15.07;;;8.80;;
59302;SDS011;45074;52.764;6.896;2023-12-07T01:20:14;14.95;;;9.38;;
59302;SDS011;45074;52.764;6.896;2023-12-07T01:22:42;14.38;;;8.30;;
59302;SDS011;45074;52.764;6.896;2023-12-07T01:25:08;14.85;;;8.75;;
59302;SDS011;45074;52.764;6.896;2023-12-07T01:27:34;16.27;;;9.38;;
59302;SDS011;45074;52.764;6.896;2023-12-07T01:30:00;17.02;;;9.02;;
59302;SDS011;45074;52.764;6.896;2023-12-07T01:32:26;15.55;;;8.20;;
59302;SDS011;45074;52.764;6.896;2023-12-07T01:34:52;14.65;;;8.20;;
59302;SDS011;45074;52.764;6.896;2023-12-07T01:37:18;12.82;;;7.80;;
59302;SDS011;45074;52.764;6.896;2023-12-07T01:39:44;13.88;;;8.68;;
59302;SDS011;45074;52.764;6.896;2023-12-07T01:42:10;15.57;;;8.80;;
59302;SDS011;45074;52.764;6.896;2023-12-07T01:44:37;17.20;;;9.35;;
59302;SDS011;45074;52.764;6.896;2023-12-07T01:47:03;17.90;;;9.35;;
59302;SDS011;45074;52.764;6.896;2023-12-07T01:49:31;15.70;;;9.27;;
59302;SDS011;45074;52.764;6.896;2023-12-07T01:51:57;15.10;;;9.05;;
59302;SDS011;45074;52.764;6.896;2023-12-07T01:54:24;15.05;;;8.77;;
59302;SDS011;45074;52.764;6.896;2023-12-07T01:56:50;15.27;;;8.45;;
59302;SDS011;45074;52.764;6.896;2023-12-07T01:59:17;16.55;;;9.80;;
59302;SDS011;45074;52.764;6.896;2023-12-07T02:01:43;18.08;;;9.80;;
59302;SDS011;45074;52.764;6.896;2023-12-07T02:04:09;15.90;;;9.30;;
59302;SDS011;45074;52.764;6.896;2023-12-07T02:06:36;15.57;;;8.88;;
59302;SDS011;45074;52.764;6.896;2023-12-07T02:09:01;15.57;;;9.75;;
59302;SDS011;45074;52.764;6.896;2023-12-07T02:11:27;17.48;;;9.18;;
59302;SDS011;45074;52.764;6.896;2023-12-07T02:13:53;17.92;;;9.45;;
59302;SDS011;45074;52.764;6.896;2023-12-07T02:17:07;16.73;;;9.40;;
59302;SDS011;45074;52.764;6.896;2023-12-07T02:22:17;17.42;;;9.45;;
59302;SDS011;45074;52.764;6.896;2023-12-07T02:25:01;17.83;;;10.00;;
59302;SDS011;45074;52.764;6.896;2023-12-07T02:27:34;17.52;;;9.98;;
59302;SDS011;45074;52.764;6.896;2023-12-07T02:30:05;21.85;;;9.85;;
59302;SDS011;45074;52.764;6.896;2023-12-07T02:32:38;15.88;;;9.70;;
59302;SDS011;45074;52.764;6.896;2023-12-07T02:35:05;18.67;;;10.27;;
59302;SDS011;45074;52.764;6.896;2023-12-07T02:37:33;16.80;;;9.77;;
59302;SDS011;45074;52.764;6.896;2023-12-07T02:40:03;17.90;;;9.80;;
59302;SDS011;45074;52.764;6.896;2023-12-07T02:42:35;17.70;;;10.20;;
59302;SDS011;45074;52.764;6.896;2023-12-07T02:45:01;18.67;;;9.93;;
59302;SDS011;45074;52.764;6.896;2023-12-07T02:47:28;15.95;;;9.43;;
59302;SDS011;45074;52.764;6.896;2023-12-07T02:49:54;16.77;;;9.40;;
59302;SDS011;45074;52.764;6.896;2023-12-07T02:52:20;16.73;;;10.27;;
59302;SDS011;45074;52.764;6.896;2023-12-07T02:54:46;17.77;;;9.98;;
59302;SDS011;45074;52.764;6.896;2023-12-07T02:57:13;17.58;;;9.70;;
59302;SDS011;45074;52.764;6.896;2023-12-07T02:59:40;19.88;;;10.05;;
59302;SDS011;45074;52.764;6.896;2023-12-07T03:02:06;16.38;;;9.57;;
59302;SDS011;45074;52.764;6.896;2023-12-07T03:04:32;18.90;;;10.50;;
59302;SDS011;45074;52.764;6.896;2023-12-07T03:06:58;17.50;;;9.95;;
59302;SDS011;45074;52.764;6.896;2023-12-07T03:09:24;17.38;;;10.32;;
59302;SDS011;45074;52.764;6.896;2023-12-07T03:11:50;18.13;;;10.10;;
59302;SDS011;45074;52.764;6.896;2023-12-07T03:14:16;17.75;;;10.77;;
59302;SDS011;45074;52.764;6.896;2023-12-07T03:16:41;16.27;;;9.75;;
59302;SDS011;45074;52.764;6.896;2023-12-07T03:19:07;17.02;;;9.85;;
59302;SDS011;45074;52.764;6.896;2023-12-07T03:21:33;17.40;;;9.98;;
59302;SDS011;45074;52.764;6.896;2023-12-07T03:23:59;16.38;;;9.60;;
59302;SDS011;45074;52.764;6.896;2023-12-07T03:26:25;17.60;;;9.27;;
59302;SDS011;45074;52.764;6.896;2023-12-07T03:28:51;17.17;;;10.85;;
59302;SDS011;45074;52.764;6.896;2023-12-07T03:31:17;15.80;;;9.52;;
59302;SDS011;45074;52.764;6.896;2023-12-07T03:33:43;17.00;;;9.85;;
59302;SDS011;45074;52.764;6.896;2023-12-07T03:36:12;16.40;;;9.18;;
59302;SDS011;45074;52.764;6.896;2023-12-07T03:38:37;18.67;;;9.60;;
59302;SDS011;45074;52.764;6.896;2023-12-07T03:41:03;17.38;;;10.45;;
59302;SDS011;45074;52.764;6.896;2023-12-07T03:43:29;17.45;;;10.35;;
59302;SDS011;45074;52.764;6.896;2023-12-07T03:45:55;18.38;;;10.38;;
59302;SDS011;45074;52.764;6.896;2023-12-07T03:48:21;18.20;;;10.13;;
59302;SDS011;45074;52.764;6.896;2023-12-07T03:50:47;17.38;;;10.05;;
59302;SDS011;45074;52.764;6.896;2023-12-07T03:53:13;17.63;;;10.15;;
59302;SDS011;45074;52.764;6.896;2023-12-07T03:55:39;19.23;;;10.35;;
59302;SDS011;45074;52.764;6.896;2023-12-07T03:58:05;21.27;;;10.68;;
59302;SDS011;45074;52.764;6.896;2023-12-07T04:00:31;18.63;;;10.55;;
59302;SDS011;45074;52.764;6.896;2023-12-07T04:02:58;17.25;;;10.18;;
59302;SDS011;45074;52.764;6.896;2023-12-07T04:05:24;18.13;;;9.93;;
59302;SDS011;45074;52.764;6.896;2023-12-07T04:07:50;17.63;;;9.77;;
59302;SDS011;45074;52.764;6.896;2023-12-07T04:10:16;18.67;;;10.00;;
59302;SDS011;45074;52.764;6.896;2023-12-07T04:12:42;19.52;;;10.10;;
59302;SDS011;45074;52.764;6.896;2023-12-07T04:15:08;18.45;;;10.70;;
59302;SDS011;45074;52.764;6.896;2023-12-07T04:17:34;19.10;;;10.18;;
59302;SDS011;45074;52.764;6.896;2023-12-07T04:20:00;20.05;;;10.57;;
59302;SDS011;45074;52.764;6.896;2023-12-07T04:22:26;20.08;;;10.60;;
59302;SDS011;45074;52.764;6.896;2023-12-07T04:24:52;22.20;;;11.75;;
59302;SDS011;45074;52.764;6.896;2023-12-07T04:27:18;19.42;;;11.63;;
59302;SDS011;45074;52.764;6.896;2023-12-07T04:29:44;20.58;;;11.95;;
59302;SDS011;45074;52.764;6.896;2023-12-07T04:32:10;22.48;;;13.60;;
59302;SDS011;45074;52.764;6.896;2023-12-07T04:34:36;24.25;;;12.70;;
59302;SDS011;45074;52.764;6.896;2023-12-07T04:37:02;23.73;;;13.57;;
59302;SDS011;45074;52.764;6.896;2023-12-07T04:39:29;22.80;;;12.63;;
59302;SDS011;45074;52.764;6.896;2023-12-07T04:41:54;23.77;;;12.48;;
59302;SDS011;45074;52.764;6.896;2023-12-07T04:44:20;20.73;;;12.15;;
59302;SDS011;45074;52.764;6.896;2023-12-07T04:46:46;23.75;;;13.35;;
59302;SDS011;45074;52.764;6.896;2023-12-07T04:49:12;22.42;;;13.00;;
59302;SDS011;45074;52.764;6.896;2023-12-07T04:51:38;22.95;;;13.63;;
59302;SDS011;45074;52.764;6.896;2023-12-07T04:54:07;23.38;;;13.15;;
59302;SDS011;45074;52.764;6.896;2023-12-07T04:56:33;24.83;;;14.25;;
59302;SDS011;45074;52.764;6.896;2023-12-07T04:58:59;24.13;;;13.38;;
59302;SDS011;45074;52.764;6.896;2023-12-07T05:01:25;22.08;;;12.88;;
59302;SDS011;45074;52.764;6.896;2023-12-07T05:03:51;22.00;;;12.98;;
59302;SDS011;45074;52.764;6.896;2023-12-07T05:06:17;27.05;;;14.38;;
59302;SDS011;45074;52.764;6.896;2023-12-07T05:08:43;22.30;;;13.27;;
59302;SDS011;45074;52.764;6.896;2023-12-07T05:11:09;25.05;;;14.10;;
59302;SDS011;45074;52.764;6.896;2023-12-07T05:13:35;25.30;;;13.45;;
59302;SDS011;45074;52.764;6.896;2023-12-07T05:16:01;23.77;;;13.57;;
59302;SDS011;45074;52.764;6.896;2023-12-07T05:18:28;24.50;;;13.25;;
59302;SDS011;45074;52.764;6.896;2023-12-07T05:20:54;24.88;;;13.10;;
59302;SDS011;45074;52.764;6.896;2023-12-07T05:23:20;23.95;;;13.00;;
59302;SDS011;45074;52.764;6.896;2023-12-07T05:25:46;24.42;;;12.95;;
59302;SDS011;45074;52.764;6.896;2023-12-07T05:28:12;22.33;;;11.93;;
59302;SDS011;45074;52.764;6.896;2023-12-07T05:30:37;21.35;;;12.27;;
59302;SDS011;45074;52.764;6.896;2023-12-07T05:33:03;23.27;;;13.20;;
59302;SDS011;45074;52.764;6.896;2023-12-07T05:35:30;23.55;;;12.18;;
59302;SDS011;45074;52.764;6.896;2023-12-07T05:37:55;21.65;;;12.10;;
59302;SDS011;45074;52.764;6.896;2023-12-07T05:40:21;21.95;;;12.65;;
59302;SDS011;45074;52.764;6.896;2023-12-07T05:42:49;21.42;;;12.38;;
59302;SDS011;45074;52.764;6.896;2023-12-07T05:45:16;21.65;;;12.50;;
59302;SDS011;45074;52.764;6.896;2023-12-07T05:47:42;23.05;;;12.25;;
59302;SDS011;45074;52.764;6.896;2023-12-07T05:50:08;21.75;;;12.57;;
59302;SDS011;45074;52.764;6.896;2023-12-07T05:52:34;23.17;;;11.77;;
59302;SDS011;45074;52.764;6.896;2023-12-07T05:55:00;22.33;;;11.88;;
59302;SDS011;45074;52.764;6.896;2023-12-07T05:57:26;23.83;;;12.18;;
59302;SDS011;45074;52.764;6.896;2023-12-07T05:59:53;19.48;;;11.52;;
59302;SDS011;45074;52.764;6.896;2023-12-07T06:02:19;20.77;;;11.95;;
59302;SDS011;45074;52.764;6.896;2023-12-07T06:04:44;21.92;;;12.05;;
59302;SDS011;45074;52.764;6.896;2023-12-07T06:07:10;22.27;;;12.48;;
59302;SDS011;45074;52.764;6.896;2023-12-07T06:09:37;25.58;;;13.15;;
59302;SDS011;45074;52.764;6.896;2023-12-07T06:12:03;21.92;;;11.57;;
59302;SDS011;45074;52.764;6.896;2023-12-07T06:14:29;26.98;;;13.88;;
59302;SDS011;45074;52.764;6.896;2023-12-07T06:16:57;28.27;;;15.43;;
59302;SDS011;45074;52.764;6.896;2023-12-07T06:19:24;26.92;;;14.70;;
59302;SDS011;45074;52.764;6.896;2023-12-07T06:21:50;26.40;;;15.20;;
59302;SDS011;45074;52.764;6.896;2023-12-07T06:24:16;26.90;;;14.77;;
59302;SDS011;45074;52.764;6.896;2023-12-07T06:26:42;23.30;;;13.23;;
59302;SDS011;45074;52.764;6.896;2023-12-07T06:29:08;22.83;;;12.63;;
59302;SDS011;45074;52.764;6.896;2023-12-07T06:31:34;23.40;;;12.35;;
59302;SDS011;45074;52.764;6.896;2023-12-07T06:34:00;22.70;;;12.45;;
59302;SDS011;45074;52.764;6.896;2023-12-07T06:36:26;23.52;;;12.63;;
59302;SDS011;45074;52.764;6.896;2023-12-07T06:38:52;22.83;;;12.35;;
59302;SDS011;45074;52.764;6.896;2023-12-07T06:41:20;23.77;;;12.77;;
59302;SDS011;45074;52.764;6.896;2023-12-07T06:43:46;22.55;;;12.65;;
59302;SDS011;45074;52.764;6.896;2023-12-07T06:46:12;23.45;;;12.18;;
59302;SDS011;45074;52.764;6.896;2023-12-07T06:48:39;24.15;;;12.82;;
59302;SDS011;45074;52.764;6.896;2023-12-07T06:51:05;24.77;;;12.40;;
59302;SDS011;45074;52.764;6.896;2023-12-07T06:53:31;25.08;;;14.10;;
59302;SDS011;45074;52.764;6.896;2023-12-07T06:55:57;30.50;;;18.27;;
59302;SDS011;45074;52.764;6.896;2023-12-07T06:58:23;27.15;;;15.55;;
59302;SDS011;45074;52.764;6.896;2023-12-07T07:00:49;29.42;;;17.23;;
59302;SDS011;45074;52.764;6.896;2023-12-07T07:03:15;27.50;;;15.88;;
59302;SDS011;45074;52.764;6.896;2023-12-07T07:05:42;25.50;;;14.73;;
59302;SDS011;45074;52.764;6.896;2023-12-07T07:08:07;24.27;;;13.80;;
59302;SDS011;45074;52.764;6.896;2023-12-07T07:10:34;23.65;;;13.75;;
59302;SDS011;45074;52.764;6.896;2023-12-07T07:13:00;24.13;;;13.38;;
59302;SDS011;45074;52.764;6.896;2023-12-07T07:15:33;24.90;;;14.35;;
59302;SDS011;45074;52.764;6.896;2023-12-07T07:17:59;25.85;;;13.20;;
59302;SDS011;45074;52.764;6.896;2023-12-07T07:20:26;24.48;;;13.48;;
59302;SDS011;45074;52.764;6.896;2023-12-07T07:22:51;24.98;;;13.50;;
59302;SDS011;45074;52.764;6.896;2023-12-07T07:25:17;24.40;;;14.10;;
59302;SDS011;45074;52.764;6.896;2023-12-07T07:27:45;24.05;;;13.55;;
59302;SDS011;45074;52.764;6.896;2023-12-07T07:30:11;25.20;;;13.02;;
59302;SDS011;45074;52.764;6.896;2023-12-07T07:32:37;23.50;;;13.20;;
59302;SDS011;45074;52.764;6.896;2023-12-07T07:35:03;21.92;;;11.27;;
59302;SDS011;45074;52.764;6.896;2023-12-07T07:37:29;21.05;;;11.27;;
59302;SDS011;45074;52.764;6.896;2023-12-07T07:39:54;24.02;;;10.65;;
59302;SDS011;45074;52.764;6.896;2023-12-07T07:42:20;19.77;;;11.13;;
59302;SDS011;45074;52.764;6.896;2023-12-07T07:44:46;21.90;;;11.57;;
59302;SDS011;45074;52.764;6.896;2023-12-07T07:47:11;18.55;;;10.60;;
59302;SDS011;45074;52.764;6.896;2023-12-07T07:49:37;19.95;;;10.77;;
59302;SDS011;45074;52.764;6.896;2023-12-07T07:52:02;20.02;;;10.73;;
59302;SDS011;45074;52.764;6.896;2023-12-07T07:54:30;20.98;;;11.32;;
59302;SDS011;45074;52.764;6.896;2023-12-07T07:56:55;19.42;;;11.40;;
59302;SDS011;45074;52.764;6.896;2023-12-07T07:59:21;21.90;;;11.77;;
59302;SDS011;45074;52.764;6.896;2023-12-07T08:01:47;19.83;;;10.63;;
59302;SDS011;45074;52.764;6.896;2023-12-07T08:04:12;25.20;;;11.65;;
59302;SDS011;45074;52.764;6.896;2023-12-07T08:06:38;20.50;;;11.55;;
59302;SDS011;45074;52.764;6.896;2023-12-07T08:09:04;20.92;;;11.70;;
59302;SDS011;45074;52.764;6.896;2023-12-07T08:11:30;21.50;;;11.88;;
59302;SDS011;45074;52.764;6.896;2023-12-07T08:13:57;21.50;;;12.00;;
59302;SDS011;45074;52.764;6.896;2023-12-07T08:16:23;23.77;;;12.93;;
59302;SDS011;45074;52.764;6.896;2023-12-07T08:18:49;23.58;;;13.13;;
59302;SDS011;45074;52.764;6.896;2023-12-07T08:21:20;25.33;;;13.93;;
59302;SDS011;45074;52.764;6.896;2023-12-07T08:23:47;24.30;;;14.00;;
59302;SDS011;45074;52.764;6.896;2023-12-07T08:26:12;25.75;;;14.07;;
59302;SDS011;45074;52.764;6.896;2023-12-07T08:28:39;24.20;;;14.07;;
59302;SDS011;45074;52.764;6.896;2023-12-07T08:31:05;25.73;;;15.50;;
59302;SDS011;45074;52.764;6.896;2023-12-07T08:33:31;28.00;;;15.38;;
59302;SDS011;45074;52.764;6.896;2023-12-07T08:35:59;25.08;;;14.70;;
59302;SDS011;45074;52.764;6.896;2023-12-07T08:38:25;26.73;;;16.35;;
59302;SDS011;45074;52.764;6.896;2023-12-07T08:40:51;29.92;;;16.92;;
59302;SDS011;45074;52.764;6.896;2023-12-07T08:43:19;28.92;;;16.25;;
59302;SDS011;45074;52.764;6.896;2023-12-07T08:45:47;25.90;;;15.98;;
59302;SDS011;45074;52.764;6.896;2023-12-07T08:48:13;26.85;;;15.68;;
59302;SDS011;45074;52.764;6.896;2023-12-07T08:50:39;26.10;;;15.30;;
59302;SDS011;45074;52.764;6.896;2023-12-07T08:53:05;29.85;;;16.42;;
59302;SDS011;45074;52.764;6.896;2023-12-07T08:55:31;27.08;;;15.57;;
59302;SDS011;45074;52.764;6.896;2023-12-07T08:57:57;29.48;;;15.70;;
59302;SDS011;45074;52.764;6.896;2023-12-07T09:00:22;30.02;;;16.92;;
59302;SDS011;45074;52.764;6.896;2023-12-07T09:02:50;28.52;;;15.38;;
59302;SDS011;45074;52.764;6.896;2023-12-07T09:05:17;25.00;;;14.60;;
59302;SDS011;45074;52.764;6.896;2023-12-07T09:07:42;26.08;;;14.75;;
59302;SDS011;45074;52.764;6.896;2023-12-07T09:10:08;26.45;;;15.30;;
59302;SDS011;45074;52.764;6.896;2023-12-07T09:12:34;28.25;;;16.33;;
59302;SDS011;45074;52.764;6.896;2023-12-07T09:15:03;30.50;;;15.82;;
59302;SDS011;45074;52.764;6.896;2023-12-07T09:17:29;29.88;;;15.70;;
59302;SDS011;45074;52.764;6.896;2023-12-07T09:19:54;25.48;;;14.55;;
59302;SDS011;45074;52.764;6.896;2023-12-07T09:22:20;24.38;;;13.85;;
59302;SDS011;45074;52.764;6.896;2023-12-07T09:24:46;31.73;;;14.07;;
59302;SDS011;45074;52.764;6.896;2023-12-07T09:27:15;25.92;;;13.48;;
59302;SDS011;45074;52.764;6.896;2023-12-07T09:29:40;24.00;;;13.77;;
59302;SDS011;45074;52.764;6.896;2023-12-07T09:32:06;24.77;;;13.63;;
59302;SDS011;45074;52.764;6.896;2023-12-07T09:34:32;27.17;;;13.73;;
59302;SDS011;45074;52.764;6.896;2023-12-07T09:37:05;28.95;;;13.98;;
59302;SDS011;45074;52.764;6.896;2023-12-07T09:39:32;32.58;;;14.65;;
59302;SDS011;45074;52.764;6.896;2023-12-07T09:41:57;55.42;;;15.13;;
59302;SDS011;45074;52.764;6.896;2023-12-07T09:44:23;39.72;;;14.55;;
59302;SDS011;45074;52.764;6.896;2023-12-07T09:46:49;39.50;;;15.95;;
59302;SDS011;45074;52.764;6.896;2023-12-07T09:49:15;76.10;;;16.83;;
59302;SDS011;45074;52.764;6.896;2023-12-07T09:51:42;118.93;;;20.63;;
59302;SDS011;45074;52.764;6.896;2023-12-07T09:54:09;58.30;;;17.15;;
59302;SDS011;45074;52.764;6.896;2023-12-07T09:56:35;43.08;;;17.25;;
59302;SDS011;45074;52.764;6.896;2023-12-07T09:59:01;48.47;;;18.02;;
59302;SDS011;45074;52.764;6.896;2023-12-07T10:01:30;41.28;;;18.25;;
59302;SDS011;45074;52.764;6.896;2023-12-07T10:06:45;40.78;;;15.27;;
59302;SDS011;45074;52.764;6.896;2023-12-07T10:09:11;40.22;;;16.42;;
59302;SDS011;45074;52.764;6.896;2023-12-07T10:11:37;48.22;;;17.17;;
59302;SDS011;45074;52.764;6.896;2023-12-07T10:14:05;48.88;;;16.75;;
59302;SDS011;45074;52.764;6.896;2023-12-07T10:16:34;39.88;;;15.38;;
59302;SDS011;45074;52.764;6.896;2023-12-07T10:19:16;50.15;;;15.82;;
59302;SDS011;45074;52.764;6.896;2023-12-07T10:21:46;34.50;;;13.60;;
59302;SDS011;45074;52.764;6.896;2023-12-07T10:24:13;28.00;;;13.55;;
59302;SDS011;45074;52.764;6.896;2023-12-07T10:26:40;28.23;;;14.52;;
59302;SDS011;45074;52.764;6.896;2023-12-07T10:29:06;28.17;;;12.95;;
59302;SDS011;45074;52.764;6.896;2023-12-07T10:31:32;28.60;;;14.60;;
59302;SDS011;45074;52.764;6.896;2023-12-07T10:33:59;32.45;;;15.02;;
59302;SDS011;45074;52.764;6.896;2023-12-07T10:36:25;27.80;;;15.40;;
59302;SDS011;45074;52.764;6.896;2023-12-07T10:38:51;26.25;;;14.27;;
59302;SDS011;45074;52.764;6.896;2023-12-07T10:41:18;33.08;;;16.00;;
59302;SDS011;45074;52.764;6.896;2023-12-07T10:43:48;25.30;;;14.98;;
59302;SDS011;45074;52.764;6.896;2023-12-07T10:46:17;31.05;;;15.48;;
59302;SDS011;45074;52.764;6.896;2023-12-07T10:48:45;29.45;;;15.60;;
59302;SDS011;45074;52.764;6.896;2023-12-07T10:51:34;38.42;;;15.20;;
59302;SDS011;45074;52.764;6.896;2023-12-07T10:54:06;34.70;;;14.60;;
59302;SDS011;45074;52.764;6.896;2023-12-07T10:56:42;36.35;;;14.75;;
59302;SDS011;45074;52.764;6.896;2023-12-07T10:59:10;32.45;;;14.70;;
59302;SDS011;45074;52.764;6.896;2023-12-07T11:01:38;32.35;;;14.75;;
59302;SDS011;45074;52.764;6.896;2023-12-07T11:04:05;34.03;;;15.00;;
59302;SDS011;45074;52.764;6.896;2023-12-07T11:06:32;41.50;;;15.52;;
59302;SDS011;45074;52.764;6.896;2023-12-07T11:09:02;31.33;;;15.10;;
59302;SDS011;45074;52.764;6.896;2023-12-07T11:11:44;28.02;;;14.25;;
59302;SDS011;45074;52.764;6.896;2023-12-07T11:14:13;27.85;;;14.07;;
59302;SDS011;45074;52.764;6.896;2023-12-07T11:16:52;33.42;;;14.90;;
59302;SDS011;45074;52.764;6.896;2023-12-07T11:19:51;34.65;;;15.20;;
59302;SDS011;45074;52.764;6.896;2023-12-07T11:22:11;35.35;;;14.98;;
59302;SDS011;45074;52.764;6.896;2023-12-07T11:24:38;34.38;;;15.80;;
59302;SDS011;45074;52.764;6.896;2023-12-07T11:27:16;32.20;;;15.88;;
59302;SDS011;45074;52.764;6.896;2023-12-07T11:29:42;39.05;;;15.32;;
59302;SDS011;45074;52.764;6.896;2023-12-07T11:32:10;39.50;;;15.80;;
59302;SDS011;45074;52.764;6.896;2023-12-07T11:34:37;30.48;;;15.15;;
59302;SDS011;45074;52.764;6.896;2023-12-07T11:37:07;44.27;;;16.30;;
59302;SDS011;45074;52.764;6.896;2023-12-07T11:39:40;38.38;;;16.33;;
59302;SDS011;45074;52.764;6.896;2023-12-07T11:42:08;34.60;;;15.82;;
59302;SDS011;45074;52.764;6.896;2023-12-07T11:44:39;34.72;;;15.63;;
59302;SDS011;45074;52.764;6.896;2023-12-07T11:47:06;38.72;;;16.33;;
59302;SDS011;45074;52.764;6.896;2023-12-07T11:49:32;36.85;;;16.90;;
59302;SDS011;45074;52.764;6.896;2023-12-07T11:51:58;32.72;;;15.85;;
59302;SDS011;45074;52.764;6.896;2023-12-07T11:54:27;38.67;;;16.73;;
59302;SDS011;45074;52.764;6.896;2023-12-07T11:56:53;37.22;;;17.67;;
59302;SDS011;45074;52.764;6.896;2023-12-07T11:59:20;38.65;;;16.77;;
59302;SDS011;45074;52.764;6.896;2023-12-07T12:01:46;37.45;;;17.10;;
59302;SDS011;45074;52.764;6.896;2023-12-07T12:04:14;41.55;;;17.60;;
59302;SDS011;45074;52.764;6.896;2023-12-07T12:06:40;37.47;;;16.85;;
59302;SDS011;45074;52.764;6.896;2023-12-07T12:09:08;37.25;;;16.67;;
59302;SDS011;45074;52.764;6.896;2023-12-07T12:11:35;35.17;;;14.95;;
59302;SDS011;45074;52.764;6.896;2023-12-07T12:14:01;37.25;;;15.93;;
59302;SDS011;45074;52.764;6.896;2023-12-07T12:16:27;37.72;;;15.88;;
59302;SDS011;45074;52.764;6.896;2023-12-07T12:18:52;40.22;;;16.45;;
59302;SDS011;45074;52.764;6.896;2023-12-07T12:21:18;35.17;;;15.75;;
59302;SDS011;45074;52.764;6.896;2023-12-07T12:23:47;34.95;;;15.98;;
59302;SDS011;45074;52.764;6.896;2023-12-07T12:26:13;36.42;;;15.18;;
59302;SDS011;45074;52.764;6.896;2023-12-07T12:28:39;38.75;;;16.15;;
59302;SDS011;45074;52.764;6.896;2023-12-07T12:31:08;38.38;;;15.40;;
59302;SDS011;45074;52.764;6.896;2023-12-07T12:33:37;42.67;;;15.25;;
59302;SDS011;45074;52.764;6.896;2023-12-07T12:36:03;38.10;;;15.23;;
59302;SDS011;45074;52.764;6.896;2023-12-07T12:38:32;41.60;;;15.38;;
59302;SDS011;45074;52.764;6.896;2023-12-07T12:40:58;43.75;;;15.98;;
59302;SDS011;45074;52.764;6.896;2023-12-07T12:43:23;44.80;;;17.65;;
59302;SDS011;45074;52.764;6.896;2023-12-07T12:45:50;46.28;;;17.00;;
59302;SDS011;45074;52.764;6.896;2023-12-07T12:48:15;45.20;;;17.45;;
59302;SDS011;45074;52.764;6.896;2023-12-07T12:50:41;46.88;;;17.05;;
59302;SDS011;45074;52.764;6.896;2023-12-07T12:53:08;49.30;;;18.33;;
59302;SDS011;45074;52.764;6.896;2023-12-07T12:55:36;52.00;;;18.90;;
59302;SDS011;45074;52.764;6.896;2023-12-07T12:58:04;57.42;;;19.65;;
59302;SDS011;45074;52.764;6.896;2023-12-07T13:00:32;52.67;;;18.35;;
59302;SDS011;45074;52.764;6.896;2023-12-07T13:02:58;50.55;;;19.48;;
59302;SDS011;45074;52.764;6.896;2023-12-07T13:05:25;57.20;;;18.83;;
59302;SDS011;45074;52.764;6.896;2023-12-07T13:07:51;55.20;;;20.77;;
59302;SDS011;45074;52.764;6.896;2023-12-07T13:10:17;54.00;;;20.95;;
59302;SDS011;45074;52.764;6.896;2023-12-07T13:12:43;58.75;;;19.10;;
59302;SDS011;45074;52.764;6.896;2023-12-07T13:15:10;53.13;;;18.42;;
59302;SDS011;45074;52.764;6.896;2023-12-07T13:17:37;59.05;;;21.33;;
59302;SDS011;45074;52.764;6.896;2023-12-07T13:20:04;53.78;;;19.00;;
59302;SDS011;45074;52.764;6.896;2023-12-07T13:22:36;58.35;;;19.98;;
59302;SDS011;45074;52.764;6.896;2023-12-07T13:25:02;58.50;;;19.70;;
59302;SDS011;45074;52.764;6.896;2023-12-07T13:27:28;55.40;;;20.42;;
59302;SDS011;45074;52.764;6.896;2023-12-07T13:29:54;60.13;;;20.88;;
59302;SDS011;45074;52.764;6.896;2023-12-07T13:32:20;55.10;;;21.70;;
59302;SDS011;45074;52.764;6.896;2023-12-07T13:34:46;56.22;;;22.27;;
59302;SDS011;45074;52.764;6.896;2023-12-07T13:37:12;58.47;;;21.13;;
59302;SDS011;45074;52.764;6.896;2023-12-07T13:39:38;55.45;;;20.13;;
59302;SDS011;45074;52.764;6.896;2023-12-07T13:42:04;57.78;;;21.95;;
59302;SDS011;45074;52.764;6.896;2023-12-07T13:44:30;58.58;;;22.13;;
59302;SDS011;45074;52.764;6.896;2023-12-07T13:46:57;64.22;;;21.77;;
59302;SDS011;45074;52.764;6.896;2023-12-07T13:49:23;54.78;;;20.40;;
59302;SDS011;45074;52.764;6.896;2023-12-07T13:51:49;54.40;;;20.65;;
59302;SDS011;45074;52.764;6.896;2023-12-07T13:54:15;62.70;;;22.05;;
59302;SDS011;45074;52.764;6.896;2023-12-07T13:56:41;57.88;;;21.23;;
59302;SDS011;45074;52.764;6.896;2023-12-07T13:59:08;58.38;;;23.30;;
59302;SDS011;45074;52.764;6.896;2023-12-07T14:01:36;54.75;;;21.25;;
59302;SDS011;45074;52.764;6.896;2023-12-07T14:04:04;56.25;;;23.20;;
59302;SDS011;45074;52.764;6.896;2023-12-07T14:06:30;51.95;;;21.67;;
59302;SDS011;45074;52.764;6.896;2023-12-07T14:08:58;50.15;;;19.90;;
59302;SDS011;45074;52.764;6.896;2023-12-07T14:11:24;52.20;;;19.55;;
59302;SDS011;45074;52.764;6.896;2023-12-07T14:13:50;52.00;;;20.67;;
59302;SDS011;45074;52.764;6.896;2023-12-07T14:16:19;54.22;;;20.25;;
59302;SDS011;45074;52.764;6.896;2023-12-07T14:18:45;52.85;;;21.40;;
59302;SDS011;45074;52.764;6.896;2023-12-07T14:21:11;47.22;;;20.20;;
59302;SDS011;45074;52.764;6.896;2023-12-07T14:23:39;49.25;;;20.48;;
59302;SDS011;45074;52.764;6.896;2023-12-07T14:26:05;45.80;;;19.45;;
59302;SDS011;45074;52.764;6.896;2023-12-07T14:28:31;47.03;;;19.67;;